aviador You're here:

KSPA Decoded Metar

SPARTANBURG VOR in SC, USA
Report Time2017-08-22 22:15:00
UTC Time2017-08-22 22:22:18
Flight Rules vfr VFR
Wind220° at 06 kt
W.Decomp.*RWY 23: 6.0 kt HW 0.5 kt LCW
W.Rank220° ranks 4
Current wind is above 220° avg. (5.0)
Visibility9999 m
Phenomena:N/A
Clouds:N/A
Expected CloudBase > 4,800 ft AGL from Temp-Dew spread
CeilingNone
Temp32°C (ISA +19)
Dew Point20°C (49% RH)
Heat Index34.1°C
QNH1015 hPa
Density Alt3,402 ft
Elevation994 ft
Report Wrong Elevation
Raw Report
METAR KSPA 222215Z AUTO 22006KT 10SM CLR 32/20 A2997 RMK AO2=

Extra information for KSPA:More info

Metar Taf Metar & Taf Last 4 Metars F.Rules Stats Wind Profile Meteogram Temp Stats Airport Information Weather charts Add Link Nearby VenuesMetar ALERT Operation Metar Decoded Social comments

AIRNAV info for KSPA